sensor_id;sensor_type;location;lat;lon;timestamp;P1;durP1;ratioP1;P2;durP2;ratioP2
51266;SDS011;37338;47.426;19.204;2023-08-24T00:02:05;7.90;;;6.70;;
51266;SDS011;37338;47.426;19.204;2023-08-24T00:04:31;9.00;;;6.75;;
51266;SDS011;37338;47.426;19.204;2023-08-24T00:06:57;7.40;;;6.57;;
51266;SDS011;37338;47.426;19.204;2023-08-24T00:09:22;7.45;;;6.25;;
51266;SDS011;37338;47.426;19.204;2023-08-24T00:11:47;7.03;;;6.28;;
51266;SDS011;37338;47.426;19.204;2023-08-24T00:14:13;8.45;;;5.97;;
51266;SDS011;37338;47.426;19.204;2023-08-24T00:16:38;6.95;;;6.28;;
51266;SDS011;37338;47.426;19.204;2023-08-24T00:19:04;6.75;;;5.30;;
51266;SDS011;37338;47.426;19.204;2023-08-24T00:21:29;8.57;;;6.28;;
51266;SDS011;37338;47.426;19.204;2023-08-24T00:23:55;6.70;;;6.10;;
51266;SDS011;37338;47.426;19.204;2023-08-24T00:26:20;8.70;;;6.30;;
51266;SDS011;37338;47.426;19.204;2023-08-24T00:28:46;8.48;;;6.40;;
51266;SDS011;37338;47.426;19.204;2023-08-24T00:31:11;6.45;;;5.95;;
51266;SDS011;37338;47.426;19.204;2023-08-24T00:33:37;12.38;;;6.15;;
51266;SDS011;37338;47.426;19.204;2023-08-24T00:36:05;8.00;;;5.50;;
51266;SDS011;37338;47.426;19.204;2023-08-24T00:38:31;8.32;;;5.70;;
51266;SDS011;37338;47.426;19.204;2023-08-24T00:40:57;10.40;;;6.35;;
51266;SDS011;37338;47.426;19.204;2023-08-24T00:43:24;6.28;;;5.63;;
51266;SDS011;37338;47.426;19.204;2023-08-24T00:45:51;6.72;;;5.75;;
51266;SDS011;37338;47.426;19.204;2023-08-24T00:48:17;6.25;;;5.75;;
51266;SDS011;37338;47.426;19.204;2023-08-24T00:50:43;9.20;;;6.00;;
51266;SDS011;37338;47.426;19.204;2023-08-24T00:53:08;6.57;;;5.97;;
51266;SDS011;37338;47.426;19.204;2023-08-24T00:55:34;9.75;;;6.47;;
51266;SDS011;37338;47.426;19.204;2023-08-24T00:57:59;7.90;;;6.28;;
51266;SDS011;37338;47.426;19.204;2023-08-24T01:00:25;7.25;;;5.82;;
51266;SDS011;37338;47.426;19.204;2023-08-24T01:02:50;10.60;;;6.93;;
51266;SDS011;37338;47.426;19.204;2023-08-24T01:05:15;9.70;;;6.15;;
51266;SDS011;37338;47.426;19.204;2023-08-24T01:07:41;8.20;;;6.63;;
51266;SDS011;37338;47.426;19.204;2023-08-24T01:10:07;7.13;;;5.97;;
51266;SDS011;37338;47.426;19.204;2023-08-24T01:15:25;8.55;;;7.13;;
51266;SDS011;37338;47.426;19.204;2023-08-24T01:17:53;7.80;;;7.10;;
51266;SDS011;37338;47.426;19.204;2023-08-24T01:20:22;7.10;;;6.40;;
51266;SDS011;37338;47.426;19.204;2023-08-24T01:22:55;7.10;;;6.40;;
51266;SDS011;37338;47.426;19.204;2023-08-24T01:27:49;10.07;;;6.70;;
51266;SDS011;37338;47.426;19.204;2023-08-24T01:30:15;8.23;;;6.88;;
51266;SDS011;37338;47.426;19.204;2023-08-24T01:32:40;10.85;;;7.65;;
51266;SDS011;37338;47.426;19.204;2023-08-24T01:35:07;7.15;;;6.50;;
51266;SDS011;37338;47.426;19.204;2023-08-24T01:37:34;8.20;;;6.43;;
51266;SDS011;37338;47.426;19.204;2023-08-24T01:40:06;7.00;;;6.30;;
51266;SDS011;37338;47.426;19.204;2023-08-24T01:45:35;7.75;;;6.82;;
51266;SDS011;37338;47.426;19.204;2023-08-24T01:48:02;8.90;;;6.68;;
51266;SDS011;37338;47.426;19.204;2023-08-24T01:50:28;8.00;;;6.65;;
51266;SDS011;37338;47.426;19.204;2023-08-24T01:52:54;9.50;;;6.55;;
51266;SDS011;37338;47.426;19.204;2023-08-24T01:55:20;8.55;;;6.82;;
51266;SDS011;37338;47.426;19.204;2023-08-24T01:57:47;7.43;;;6.25;;
51266;SDS011;37338;47.426;19.204;2023-08-24T02:00:13;9.57;;;6.60;;
51266;SDS011;37338;47.426;19.204;2023-08-24T02:02:39;9.23;;;6.47;;
51266;SDS011;37338;47.426;19.204;2023-08-24T02:05:04;8.80;;;7.30;;
51266;SDS011;37338;47.426;19.204;2023-08-24T02:07:30;6.47;;;5.88;;
51266;SDS011;37338;47.426;19.204;2023-08-24T02:09:55;8.27;;;6.38;;
51266;SDS011;37338;47.426;19.204;2023-08-24T02:12:21;7.88;;;6.50;;
51266;SDS011;37338;47.426;19.204;2023-08-24T02:14:46;7.45;;;5.68;;
51266;SDS011;37338;47.426;19.204;2023-08-24T02:17:11;8.73;;;7.05;;
51266;SDS011;37338;47.426;19.204;2023-08-24T02:19:37;6.82;;;6.25;;
51266;SDS011;37338;47.426;19.204;2023-08-24T02:22:02;6.70;;;6.13;;
51266;SDS011;37338;47.426;19.204;2023-08-24T02:24:28;7.63;;;6.43;;
51266;SDS011;37338;47.426;19.204;2023-08-24T02:26:53;6.60;;;5.97;;
51266;SDS011;37338;47.426;19.204;2023-08-24T02:29:18;7.43;;;6.25;;
51266;SDS011;37338;47.426;19.204;2023-08-24T02:31:44;6.97;;;6.30;;
51266;SDS011;37338;47.426;19.204;2023-08-24T02:34:09;7.18;;;6.30;;
51266;SDS011;37338;47.426;19.204;2023-08-24T02:36:35;6.50;;;5.85;;
51266;SDS011;37338;47.426;19.204;2023-08-24T02:39:00;7.60;;;6.80;;
51266;SDS011;37338;47.426;19.204;2023-08-24T02:41:26;12.05;;;6.55;;
51266;SDS011;37338;47.426;19.204;2023-08-24T02:43:52;7.63;;;6.32;;
51266;SDS011;37338;47.426;19.204;2023-08-24T02:46:17;7.93;;;7.22;;
51266;SDS011;37338;47.426;19.204;2023-08-24T02:48:43;7.13;;;6.43;;
51266;SDS011;37338;47.426;19.204;2023-08-24T02:51:09;8.55;;;7.20;;
51266;SDS011;37338;47.426;19.204;2023-08-24T02:53:35;8.75;;;7.40;;
51266;SDS011;37338;47.426;19.204;2023-08-24T02:56:01;7.13;;;6.43;;
51266;SDS011;37338;47.426;19.204;2023-08-24T02:58:27;10.55;;;7.53;;
51266;SDS011;37338;47.426;19.204;2023-08-24T03:00:52;9.20;;;8.23;;
51266;SDS011;37338;47.426;19.204;2023-08-24T03:03:18;8.13;;;6.97;;
51266;SDS011;37338;47.426;19.204;2023-08-24T03:05:56;13.00;;;6.95;;
51266;SDS011;37338;47.426;19.204;2023-08-24T03:08:23;7.70;;;6.93;;
51266;SDS011;37338;47.426;19.204;2023-08-24T03:10:48;7.63;;;6.88;;
51266;SDS011;37338;47.426;19.204;2023-08-24T03:13:14;8.10;;;7.07;;
51266;SDS011;37338;47.426;19.204;2023-08-24T03:15:39;8.40;;;6.80;;
51266;SDS011;37338;47.426;19.204;2023-08-24T03:18:04;8.82;;;7.35;;
51266;SDS011;37338;47.426;19.204;2023-08-24T03:20:30;7.85;;;7.03;;
51266;SDS011;37338;47.426;19.204;2023-08-24T03:22:55;10.00;;;7.07;;
51266;SDS011;37338;47.426;19.204;2023-08-24T03:25:22;9.10;;;6.90;;
51266;SDS011;37338;47.426;19.204;2023-08-24T03:27:48;8.55;;;7.22;;
51266;SDS011;37338;47.426;19.204;2023-08-24T03:30:13;8.10;;;7.30;;
51266;SDS011;37338;47.426;19.204;2023-08-24T03:32:42;9.32;;;7.85;;
51266;SDS011;37338;47.426;19.204;2023-08-24T03:35:07;8.82;;;7.88;;
51266;SDS011;37338;47.426;19.204;2023-08-24T03:37:33;10.88;;;7.28;;
51266;SDS011;37338;47.426;19.204;2023-08-24T03:39:58;9.13;;;7.07;;
51266;SDS011;37338;47.426;19.204;2023-08-24T03:42:24;8.93;;;7.72;;
51266;SDS011;37338;47.426;19.204;2023-08-24T03:44:49;12.57;;;7.80;;
51266;SDS011;37338;47.426;19.204;2023-08-24T03:47:15;8.50;;;7.38;;
51266;SDS011;37338;47.426;19.204;2023-08-24T03:49:43;9.27;;;7.70;;
51266;SDS011;37338;47.426;19.204;2023-08-24T03:52:09;10.60;;;8.13;;
51266;SDS011;37338;47.426;19.204;2023-08-24T03:54:34;7.60;;;6.90;;
51266;SDS011;37338;47.426;19.204;2023-08-24T03:56:59;11.13;;;7.88;;
51266;SDS011;37338;47.426;19.204;2023-08-24T03:59:25;9.85;;;7.40;;
51266;SDS011;37338;47.426;19.204;2023-08-24T04:01:51;7.90;;;7.10;;
51266;SDS011;37338;47.426;19.204;2023-08-24T04:04:16;9.85;;;7.85;;
51266;SDS011;37338;47.426;19.204;2023-08-24T04:06:42;9.88;;;7.15;;
51266;SDS011;37338;47.426;19.204;2023-08-24T04:09:07;8.98;;;7.50;;
51266;SDS011;37338;47.426;19.204;2023-08-24T04:11:32;9.60;;;7.97;;
51266;SDS011;37338;47.426;19.204;2023-08-24T04:13:58;9.75;;;7.53;;
51266;SDS011;37338;47.426;19.204;2023-08-24T04:16:23;11.55;;;8.93;;
51266;SDS011;37338;47.426;19.204;2023-08-24T04:18:49;9.02;;;7.90;;
51266;SDS011;37338;47.426;19.204;2023-08-24T04:21:14;10.60;;;8.25;;
51266;SDS011;37338;47.426;19.204;2023-08-24T04:23:39;11.20;;;8.30;;
51266;SDS011;37338;47.426;19.204;2023-08-24T04:26:10;9.90;;;7.50;;
51266;SDS011;37338;47.426;19.204;2023-08-24T04:28:38;9.32;;;8.40;;
51266;SDS011;37338;47.426;19.204;2023-08-24T04:31:04;8.95;;;8.07;;
51266;SDS011;37338;47.426;19.204;2023-08-24T04:33:29;12.65;;;8.38;;
51266;SDS011;37338;47.426;19.204;2023-08-24T04:35:54;9.40;;;8.50;;
51266;SDS011;37338;47.426;19.204;2023-08-24T04:38:20;11.45;;;7.88;;
51266;SDS011;37338;47.426;19.204;2023-08-24T04:40:46;8.90;;;8.00;;
51266;SDS011;37338;47.426;19.204;2023-08-24T04:43:13;13.05;;;8.40;;
51266;SDS011;37338;47.426;19.204;2023-08-24T04:45:38;10.32;;;8.73;;
51266;SDS011;37338;47.426;19.204;2023-08-24T04:48:04;10.07;;;8.40;;
51266;SDS011;37338;47.426;19.204;2023-08-24T04:50:29;10.98;;;8.60;;
51266;SDS011;37338;47.426;19.204;2023-08-24T04:52:55;9.75;;;8.13;;
51266;SDS011;37338;47.426;19.204;2023-08-24T04:55:20;11.95;;;8.38;;
51266;SDS011;37338;47.426;19.204;2023-08-24T04:57:45;12.07;;;8.43;;
51266;SDS011;37338;47.426;19.204;2023-08-24T05:00:11;12.20;;;8.55;;
51266;SDS011;37338;47.426;19.204;2023-08-24T05:02:41;8.30;;;7.47;;
51266;SDS011;37338;47.426;19.204;2023-08-24T05:05:07;13.30;;;8.65;;
51266;SDS011;37338;47.426;19.204;2023-08-24T05:07:35;7.97;;;7.28;;
51266;SDS011;37338;47.426;19.204;2023-08-24T05:10:00;16.15;;;8.52;;
51266;SDS011;37338;47.426;19.204;2023-08-24T05:12:26;19.60;;;8.38;;
51266;SDS011;37338;47.426;19.204;2023-08-24T05:14:51;11.07;;;7.20;;
51266;SDS011;37338;47.426;19.204;2023-08-24T05:17:16;12.68;;;7.90;;
51266;SDS011;37338;47.426;19.204;2023-08-24T05:19:42;11.40;;;7.30;;
51266;SDS011;37338;47.426;19.204;2023-08-24T05:22:07;7.95;;;7.13;;
51266;SDS011;37338;47.426;19.204;2023-08-24T05:24:32;13.35;;;7.05;;
51266;SDS011;37338;47.426;19.204;2023-08-24T05:26:58;9.45;;;7.32;;
51266;SDS011;37338;47.426;19.204;2023-08-24T05:29:23;10.57;;;7.07;;
51266;SDS011;37338;47.426;19.204;2023-08-24T05:31:48;13.98;;;7.03;;
51266;SDS011;37338;47.426;19.204;2023-08-24T05:34:14;8.85;;;7.13;;
51266;SDS011;37338;47.426;19.204;2023-08-24T05:36:39;9.30;;;6.40;;
51266;SDS011;37338;47.426;19.204;2023-08-24T05:39:05;7.50;;;6.55;;
51266;SDS011;37338;47.426;19.204;2023-08-24T05:41:30;6.88;;;6.22;;
51266;SDS011;37338;47.426;19.204;2023-08-24T05:43:56;8.43;;;5.97;;
51266;SDS011;37338;47.426;19.204;2023-08-24T05:46:22;7.53;;;5.65;;
51266;SDS011;37338;47.426;19.204;2023-08-24T05:48:47;5.78;;;5.28;;
51266;SDS011;37338;47.426;19.204;2023-08-24T05:51:13;7.68;;;5.68;;
51266;SDS011;37338;47.426;19.204;2023-08-24T05:53:38;7.00;;;4.85;;
51266;SDS011;37338;47.426;19.204;2023-08-24T05:56:05;9.48;;;5.47;;
51266;SDS011;37338;47.426;19.204;2023-08-24T05:58:31;7.72;;;5.38;;
51266;SDS011;37338;47.426;19.204;2023-08-24T06:00:57;7.82;;;5.68;;
51266;SDS011;37338;47.426;19.204;2023-08-24T06:03:24;6.65;;;5.50;;
51266;SDS011;37338;47.426;19.204;2023-08-24T06:05:49;6.65;;;5.00;;
51266;SDS011;37338;47.426;19.204;2023-08-24T06:08:15;10.13;;;5.55;;
51266;SDS011;37338;47.426;19.204;2023-08-24T06:10:41;5.80;;;4.90;;
51266;SDS011;37338;47.426;19.204;2023-08-24T06:13:06;5.75;;;5.05;;
51266;SDS011;37338;47.426;19.204;2023-08-24T06:15:32;7.28;;;4.60;;
51266;SDS011;37338;47.426;19.204;2023-08-24T06:17:57;6.15;;;5.13;;
51266;SDS011;37338;47.426;19.204;2023-08-24T06:20:24;5.30;;;4.05;;
51266;SDS011;37338;47.426;19.204;2023-08-24T06:22:49;6.78;;;5.45;;
51266;SDS011;37338;47.426;19.204;2023-08-24T06:25:15;5.93;;;5.35;;
51266;SDS011;37338;47.426;19.204;2023-08-24T06:27:41;5.85;;;4.55;;
51266;SDS011;37338;47.426;19.204;2023-08-24T06:30:06;8.40;;;4.32;;
51266;SDS011;37338;47.426;19.204;2023-08-24T06:32:32;7.07;;;4.68;;
51266;SDS011;37338;47.426;19.204;2023-08-24T06:34:57;6.05;;;4.20;;
51266;SDS011;37338;47.426;19.204;2023-08-24T06:37:23;6.05;;;4.53;;
51266;SDS011;37338;47.426;19.204;2023-08-24T06:39:49;5.68;;;4.35;;
51266;SDS011;37338;47.426;19.204;2023-08-24T06:42:14;5.60;;;4.07;;
51266;SDS011;37338;47.426;19.204;2023-08-24T06:44:39;5.00;;;4.43;;
51266;SDS011;37338;47.426;19.204;2023-08-24T06:47:05;9.73;;;4.20;;
51266;SDS011;37338;47.426;19.204;2023-08-24T06:49:30;7.18;;;4.63;;
51266;SDS011;37338;47.426;19.204;2023-08-24T06:51:56;4.90;;;4.45;;
51266;SDS011;37338;47.426;19.204;2023-08-24T06:54:21;5.20;;;4.68;;
51266;SDS011;37338;47.426;19.204;2023-08-24T06:56:47;6.55;;;4.43;;
51266;SDS011;37338;47.426;19.204;2023-08-24T06:59:13;8.05;;;5.20;;
51266;SDS011;37338;47.426;19.204;2023-08-24T07:01:39;8.85;;;5.40;;
51266;SDS011;37338;47.426;19.204;2023-08-24T07:04:05;8.10;;;5.25;;
51266;SDS011;37338;47.426;19.204;2023-08-24T07:06:32;7.57;;;4.88;;
51266;SDS011;37338;47.426;19.204;2023-08-24T07:08:59;6.03;;;4.47;;
51266;SDS011;37338;47.426;19.204;2023-08-24T07:11:25;7.97;;;4.63;;
51266;SDS011;37338;47.426;19.204;2023-08-24T07:13:51;9.05;;;5.18;;
51266;SDS011;37338;47.426;19.204;2023-08-24T07:16:18;6.45;;;5.32;;
51266;SDS011;37338;47.426;19.204;2023-08-24T07:18:44;7.05;;;5.10;;
51266;SDS011;37338;47.426;19.204;2023-08-24T07:21:09;7.50;;;5.28;;
51266;SDS011;37338;47.426;19.204;2023-08-24T07:23:34;8.68;;;5.65;;
51266;SDS011;37338;47.426;19.204;2023-08-24T07:26:00;7.43;;;4.68;;
51266;SDS011;37338;47.426;19.204;2023-08-24T07:28:25;5.65;;;4.80;;
51266;SDS011;37338;47.426;19.204;2023-08-24T07:30:50;8.57;;;4.63;;
51266;SDS011;37338;47.426;19.204;2023-08-24T07:33:20;8.90;;;4.78;;
51266;SDS011;37338;47.426;19.204;2023-08-24T07:35:46;5.30;;;4.75;;
51266;SDS011;37338;47.426;19.204;2023-08-24T07:38:12;5.10;;;4.57;;
51266;SDS011;37338;47.426;19.204;2023-08-24T07:40:37;5.30;;;4.75;;
51266;SDS011;37338;47.426;19.204;2023-08-24T07:43:03;6.45;;;4.88;;
51266;SDS011;37338;47.426;19.204;2023-08-24T07:45:29;6.88;;;5.03;;
51266;SDS011;37338;47.426;19.204;2023-08-24T07:47:54;8.50;;;6.07;;
51266;SDS011;37338;47.426;19.204;2023-08-24T07:50:20;6.60;;;5.93;;
51266;SDS011;37338;47.426;19.204;2023-08-24T07:52:47;6.78;;;6.07;;
51266;SDS011;37338;47.426;19.204;2023-08-24T07:55:12;10.70;;;6.05;;
51266;SDS011;37338;47.426;19.204;2023-08-24T07:57:38;9.35;;;6.05;;
51266;SDS011;37338;47.426;19.204;2023-08-24T08:00:04;7.03;;;5.50;;
51266;SDS011;37338;47.426;19.204;2023-08-24T08:02:30;11.25;;;5.75;;
51266;SDS011;37338;47.426;19.204;2023-08-24T08:04:57;10.77;;;7.47;;
51266;SDS011;37338;47.426;19.204;2023-08-24T08:07:24;8.57;;;6.00;;
51266;SDS011;37338;47.426;19.204;2023-08-24T08:09:50;10.05;;;6.53;;
51266;SDS011;37338;47.426;19.204;2023-08-24T08:12:16;6.50;;;5.28;;
51266;SDS011;37338;47.426;19.204;2023-08-24T08:14:41;9.70;;;5.75;;
51266;SDS011;37338;47.426;19.204;2023-08-24T08:17:06;9.98;;;5.13;;
51266;SDS011;37338;47.426;19.204;2023-08-24T08:19:32;8.07;;;5.88;;
51266;SDS011;37338;47.426;19.204;2023-08-24T08:22:00;7.82;;;5.47;;
51266;SDS011;37338;47.426;19.204;2023-08-24T08:24:25;6.85;;;5.53;;
51266;SDS011;37338;47.426;19.204;2023-08-24T08:26:50;6.30;;;5.18;;
51266;SDS011;37338;47.426;19.204;2023-08-24T08:29:16;8.88;;;4.60;;
51266;SDS011;37338;47.426;19.204;2023-08-24T08:31:42;6.72;;;4.85;;
51266;SDS011;37338;47.426;19.204;2023-08-24T08:34:07;13.27;;;5.30;;
51266;SDS011;37338;47.426;19.204;2023-08-24T08:36:32;11.63;;;5.53;;
51266;SDS011;37338;47.426;19.204;2023-08-24T08:38:58;17.90;;;6.47;;
51266;SDS011;37338;47.426;19.204;2023-08-24T08:41:24;7.40;;;4.97;;
51266;SDS011;37338;47.426;19.204;2023-08-24T08:43:52;20.67;;;5.60;;
51266;SDS011;37338;47.426;19.204;2023-08-24T08:46:18;9.93;;;5.00;;
51266;SDS011;37338;47.426;19.204;2023-08-24T08:48:44;7.80;;;4.78;;
51266;SDS011;37338;47.426;19.204;2023-08-24T08:51:10;7.30;;;5.53;;
51266;SDS011;37338;47.426;19.204;2023-08-24T08:53:37;5.65;;;4.32;;
51266;SDS011;37338;47.426;19.204;2023-08-24T08:56:02;20.00;;;6.47;;
51266;SDS011;37338;47.426;19.204;2023-08-24T08:58:33;7.20;;;5.10;;
51266;SDS011;37338;47.426;19.204;2023-08-24T09:01:01;6.15;;;5.35;;
51266;SDS011;37338;47.426;19.204;2023-08-24T09:03:29;8.88;;;5.25;;
51266;SDS011;37338;47.426;19.204;2023-08-24T09:05:56;83.25;;;25.45;;
51266;SDS011;37338;47.426;19.204;2023-08-24T09:08:22;34.50;;;10.65;;
51266;SDS011;37338;47.426;19.204;2023-08-24T09:10:47;9.23;;;5.78;;
51266;SDS011;37338;47.426;19.204;2023-08-24T09:13:13;6.97;;;5.10;;
51266;SDS011;37338;47.426;19.204;2023-08-24T09:15:39;5.82;;;5.13;;
51266;SDS011;37338;47.426;19.204;2023-08-24T09:18:04;5.20;;;4.63;;
51266;SDS011;37338;47.426;19.204;2023-08-24T09:20:30;16.38;;;6.60;;
51266;SDS011;37338;47.426;19.204;2023-08-24T09:22:56;38.53;;;10.48;;
51266;SDS011;37338;47.426;19.204;2023-08-24T09:25:22;10.10;;;5.25;;
51266;SDS011;37338;47.426;19.204;2023-08-24T09:28:01;10.43;;;5.75;;
51266;SDS011;37338;47.426;19.204;2023-08-24T09:30:31;12.30;;;6.55;;
51266;SDS011;37338;47.426;19.204;2023-08-24T09:33:02;8.45;;;5.15;;
51266;SDS011;37338;47.426;19.204;2023-08-24T09:35:28;9.02;;;5.07;;
51266;SDS011;37338;47.426;19.204;2023-08-24T09:37:54;5.93;;;4.85;;
51266;SDS011;37338;47.426;19.204;2023-08-24T09:40:23;8.82;;;5.90;;
51266;SDS011;37338;47.426;19.204;2023-08-24T09:42:49;8.07;;;4.38;;
51266;SDS011;37338;47.426;19.204;2023-08-24T09:45:15;8.43;;;5.40;;
51266;SDS011;37338;47.426;19.204;2023-08-24T09:47:50;9.02;;;5.75;;
51266;SDS011;37338;47.426;19.204;2023-08-24T09:50:19;7.18;;;4.85;;
51266;SDS011;37338;47.426;19.204;2023-08-24T09:52:44;10.85;;;4.55;;
51266;SDS011;37338;47.426;19.204;2023-08-24T09:55:10;10.38;;;4.68;;
51266;SDS011;37338;47.426;19.204;2023-08-24T09:57:38;14.23;;;5.30;;
51266;SDS011;37338;47.426;19.204;2023-08-24T10:00:07;10.25;;;4.45;;
51266;SDS011;37338;47.426;19.204;2023-08-24T10:02:41;8.30;;;4.80;;
51266;SDS011;37338;47.426;19.204;2023-08-24T10:05:17;13.95;;;4.60;;
51266;SDS011;37338;47.426;19.204;2023-08-24T10:07:47;10.30;;;4.82;;
51266;SDS011;37338;47.426;19.204;2023-08-24T10:10:16;9.30;;;4.75;;
51266;SDS011;37338;47.426;19.204;2023-08-24T10:12:44;6.03;;;4.90;;
51266;SDS011;37338;47.426;19.204;2023-08-24T10:15:13;12.13;;;5.00;;
51266;SDS011;37338;47.426;19.204;2023-08-24T10:17:39;5.80;;;4.10;;
51266;SDS011;37338;47.426;19.204;2023-08-24T10:20:05;4.20;;;3.80;;
51266;SDS011;37338;47.426;19.204;2023-08-24T10:22:34;7.22;;;4.38;;
51266;SDS011;37338;47.426;19.204;2023-08-24T10:25:00;6.25;;;3.33;;
51266;SDS011;37338;47.426;19.204;2023-08-24T10:27:29;7.35;;;4.00;;
51266;SDS011;37338;47.426;19.204;2023-08-24T10:29:55;5.55;;;3.75;;
51266;SDS011;37338;47.426;19.204;2023-08-24T10:32:22;12.52;;;4.15;;
51266;SDS011;37338;47.426;19.204;2023-08-24T10:34:49;4.53;;;3.25;;
51266;SDS011;37338;47.426;19.204;2023-08-24T10:37:15;8.35;;;3.97;;
51266;SDS011;37338;47.426;19.204;2023-08-24T10:39:46;5.22;;;2.85;;
51266;SDS011;37338;47.426;19.204;2023-08-24T10:42:12;4.07;;;2.88;;
51266;SDS011;37338;47.426;19.204;2023-08-24T10:44:39;6.90;;;3.70;;
51266;SDS011;37338;47.426;19.204;2023-08-24T10:47:18;5.78;;;3.88;;
51266;SDS011;37338;47.426;19.204;2023-08-24T10:52:20;6.32;;;3.33;;
51266;SDS011;37338;47.426;19.204;2023-08-24T10:54:46;3.90;;;3.50;;
51266;SDS011;37338;47.426;19.204;2023-08-24T10:57:17;5.10;;;3.25;;
51266;SDS011;37338;47.426;19.204;2023-08-24T11:05:26;3.55;;;3.00;;
51266;SDS011;37338;47.426;19.204;2023-08-24T11:08:02;6.53;;;3.92;;
51266;SDS011;37338;47.426;19.204;2023-08-24T11:10:33;6.28;;;3.05;;
51266;SDS011;37338;47.426;19.204;2023-08-24T11:13:06;9.82;;;3.58;;
51266;SDS011;37338;47.426;19.204;2023-08-24T11:15:42;4.53;;;3.15;;
51266;SDS011;37338;47.426;19.204;2023-08-24T11:20:49;4.93;;;3.55;;
51266;SDS011;37338;47.426;19.204;2023-08-24T11:23:17;3.75;;;2.90;;
51266;SDS011;37338;47.426;19.204;2023-08-24T11:25:44;4.32;;;3.17;;
51266;SDS011;37338;47.426;19.204;2023-08-24T11:28:10;2.70;;;2.50;;
51266;SDS011;37338;47.426;19.204;2023-08-24T11:30:36;4.03;;;2.85;;
51266;SDS011;37338;47.426;19.204;2023-08-24T11:33:01;3.08;;;2.78;;
51266;SDS011;37338;47.426;19.204;2023-08-24T11:35:28;3.65;;;1.98;;
51266;SDS011;37338;47.426;19.204;2023-08-24T11:37:54;5.43;;;3.42;;
51266;SDS011;37338;47.426;19.204;2023-08-24T11:40:21;3.30;;;2.50;;
51266;SDS011;37338;47.426;19.204;2023-08-24T11:42:54;3.90;;;2.88;;
51266;SDS011;37338;47.426;19.204;2023-08-24T11:45:20;5.93;;;2.80;;
51266;SDS011;37338;47.426;19.204;2023-08-24T11:47:46;3.85;;;2.47;;
51266;SDS011;37338;47.426;19.204;2023-08-24T11:50:12;4.13;;;2.90;;
51266;SDS011;37338;47.426;19.204;2023-08-24T11:52:43;4.05;;;2.60;;
51266;SDS011;37338;47.426;19.204;2023-08-24T11:55:10;8.73;;;2.92;;
51266;SDS011;37338;47.426;19.204;2023-08-24T11:57:36;3.88;;;2.78;;
51266;SDS011;37338;47.426;19.204;2023-08-24T12:00:02;4.53;;;3.13;;
51266;SDS011;37338;47.426;19.204;2023-08-24T12:02:28;6.95;;;3.05;;
51266;SDS011;37338;47.426;19.204;2023-08-24T12:04:54;6.57;;;3.03;;
51266;SDS011;37338;47.426;19.204;2023-08-24T12:07:20;3.40;;;2.75;;
51266;SDS011;37338;47.426;19.204;2023-08-24T12:09:45;5.13;;;3.03;;
51266;SDS011;37338;47.426;19.204;2023-08-24T12:12:12;3.13;;;2.75;;
51266;SDS011;37338;47.426;19.204;2023-08-24T12:14:43;5.55;;;2.63;;
51266;SDS011;37338;47.426;19.204;2023-08-24T12:17:10;6.20;;;3.10;;
51266;SDS011;37338;47.426;19.204;2023-08-24T12:19:35;6.30;;;3.15;;
51266;SDS011;37338;47.426;19.204;2023-08-24T12:22:01;4.32;;;2.80;;
51266;SDS011;37338;47.426;19.204;2023-08-24T12:24:26;3.55;;;2.90;;
51266;SDS011;37338;47.426;19.204;2023-08-24T12:26:55;3.00;;;2.70;;
51266;SDS011;37338;47.426;19.204;2023-08-24T12:29:22;3.72;;;3.00;;
51266;SDS011;37338;47.426;19.204;2023-08-24T12:31:48;6.80;;;2.97;;
51266;SDS011;37338;47.426;19.204;2023-08-24T12:34:14;4.93;;;2.38;;
51266;SDS011;37338;47.426;19.204;2023-08-24T12:36:40;4.13;;;3.08;;
51266;SDS011;37338;47.426;19.204;2023-08-24T12:39:06;3.10;;;2.40;;
51266;SDS011;37338;47.426;19.204;2023-08-24T12:41:33;3.92;;;3.00;;
51266;SDS011;37338;47.426;19.204;2023-08-24T12:43:59;3.13;;;2.50;;
51266;SDS011;37338;47.426;19.204;2023-08-24T12:46:29;6.93;;;2.47;;
51266;SDS011;37338;47.426;19.204;2023-08-24T12:48:55;5.18;;;3.10;;
51266;SDS011;37338;47.426;19.204;2023-08-24T12:51:20;6.75;;;2.75;;
51266;SDS011;37338;47.426;19.204;2023-08-24T12:53:46;8.35;;;3.63;;
51266;SDS011;37338;47.426;19.204;2023-08-24T12:56:11;5.15;;;2.50;;
51266;SDS011;37338;47.426;19.204;2023-08-24T12:58:36;6.85;;;2.72;;
51266;SDS011;37338;47.426;19.204;2023-08-24T13:01:02;5.15;;;2.95;;
51266;SDS011;37338;47.426;19.204;2023-08-24T13:03:28;5.63;;;3.00;;
51266;SDS011;37338;47.426;19.204;2023-08-24T13:05:53;5.75;;;3.00;;
51266;SDS011;37338;47.426;19.204;2023-08-24T13:08:18;3.72;;;2.67;;
51266;SDS011;37338;47.426;19.204;2023-08-24T13:10:44;3.58;;;2.78;;
51266;SDS011;37338;47.426;19.204;2023-08-24T13:13:09;9.23;;;2.80;;
51266;SDS011;37338;47.426;19.204;2023-08-24T13:15:35;5.60;;;2.95;;
51266;SDS011;37338;47.426;19.204;2023-08-24T13:18:00;5.53;;;3.30;;
51266;SDS011;37338;47.426;19.204;2023-08-24T13:20:26;3.10;;;2.47;;
51266;SDS011;37338;47.426;19.204;2023-08-24T13:22:52;5.57;;;3.03;;
51266;SDS011;37338;47.426;19.204;2023-08-24T13:25:18;4.22;;;2.40;;
51266;SDS011;37338;47.426;19.204;2023-08-24T13:27:43;3.83;;;2.67;;
51266;SDS011;37338;47.426;19.204;2023-08-24T13:30:09;4.53;;;2.85;;
51266;SDS011;37338;47.426;19.204;2023-08-24T13:32:34;4.28;;;2.25;;
51266;SDS011;37338;47.426;19.204;2023-08-24T13:35:00;4.88;;;2.75;;
51266;SDS011;37338;47.426;19.204;2023-08-24T13:37:26;5.57;;;2.97;;
51266;SDS011;37338;47.426;19.204;2023-08-24T13:39:51;3.40;;;2.08;;
51266;SDS011;37338;47.426;19.204;2023-08-24T13:42:17;4.13;;;2.25;;
51266;SDS011;37338;47.426;19.204;2023-08-24T13:44:43;5.57;;;2.75;;
51266;SDS011;37338;47.426;19.204;2023-08-24T13:47:09;4.68;;;2.78;;
51266;SDS011;37338;47.426;19.204;2023-08-24T13:49:35;5.80;;;3.15;;
51266;SDS011;37338;47.426;19.204;2023-08-24T13:52:00;5.20;;;2.72;;
51266;SDS011;37338;47.426;19.204;2023-08-24T13:54:26;4.32;;;2.90;;
51266;SDS011;37338;47.426;19.204;2023-08-24T13:56:51;4.45;;;2.55;;
51266;SDS011;37338;47.426;19.204;2023-08-24T13:59:18;6.15;;;2.33;;
51266;SDS011;37338;47.426;19.204;2023-08-24T14:01:44;4.30;;;2.42;;
51266;SDS011;37338;47.426;19.204;2023-08-24T14:04:10;5.68;;;2.70;;
51266;SDS011;37338;47.426;19.204;2023-08-24T14:06:35;3.33;;;2.45;;
51266;SDS011;37338;47.426;19.204;2023-08-24T14:09:02;5.00;;;2.80;;
51266;SDS011;37338;47.426;19.204;2023-08-24T14:11:30;4.22;;;2.63;;
51266;SDS011;37338;47.426;19.204;2023-08-24T14:13:56;4.03;;;2.70;;
51266;SDS011;37338;47.426;19.204;2023-08-24T14:16:22;3.15;;;2.85;;
51266;SDS011;37338;47.426;19.204;2023-08-24T14:18:47;4.28;;;2.33;;
51266;SDS011;37338;47.426;19.204;2023-08-24T14:21:15;3.30;;;2.78;;
51266;SDS011;37338;47.426;19.204;2023-08-24T14:23:40;5.35;;;2.80;;
51266;SDS011;37338;47.426;19.204;2023-08-24T14:26:06;4.05;;;2.38;;
51266;SDS011;37338;47.426;19.204;2023-08-24T14:31:20;4.53;;;2.38;;
51266;SDS011;37338;47.426;19.204;2023-08-24T14:33:46;5.68;;;2.63;;
51266;SDS011;37338;47.426;19.204;2023-08-24T14:36:11;6.13;;;2.40;;
51266;SDS011;37338;47.426;19.204;2023-08-24T14:38:40;5.35;;;2.47;;
51266;SDS011;37338;47.426;19.204;2023-08-24T14:41:06;6.32;;;2.40;;
51266;SDS011;37338;47.426;19.204;2023-08-24T14:43:35;7.13;;;3.17;;
51266;SDS011;37338;47.426;19.204;2023-08-24T14:46:01;5.72;;;2.33;;
51266;SDS011;37338;47.426;19.204;2023-08-24T14:48:26;5.88;;;2.80;;
51266;SDS011;37338;47.426;19.204;2023-08-24T14:50:51;3.92;;;2.65;;